Time;durP1;ratioP1;P1;durP2;ratioP2;P2;SDS_P1;SDS_P2;PMS_P1;PMS_P2;Temp;Humidity;BMP_temperature;BMP_pressure;BME280_temperature;BME280_humidity;BME280_pressure;Samples;Min_cycle;Max_cycle;Signal;HPM_P1;HPM_P2
2023/07/01 00:01:56;;;;;;;3.10;2.80;;;22.90;51.10;;;;;;5050360;28;20103;-90
2023/07/01 00:04:23;;;;;;;2.70;2.28;;;22.80;51.10;;;;;;5016422;28;20042;-91
2023/07/01 00:06:50;;;;;;;2.47;2.28;;;22.90;51.20;;;;;;5019236;28;20049;-90
2023/07/01 00:09:16;;;;;;;3.92;2.13;;;22.70;51.00;;;;;;5024520;28;20041;-90
2023/07/01 00:11:43;;;;;;;2.05;1.95;;;22.80;51.10;;;;;;5032403;28;20508;-91
2023/07/01 00:14:10;;;;;;;2.55;1.77;;;22.80;51.20;;;;;;5040289;28;20053;-91
2023/07/01 00:16:39;;;;;;;3.92;2.28;;;22.80;51.20;;;;;;5041600;28;20049;-91
2023/07/01 00:19:07;;;;;;;3.63;2.10;;;22.70;51.10;;;;;;5016510;28;20084;-90
2023/07/01 00:21:34;;;;;;;2.45;2.17;;;22.80;51.30;;;;;;5026042;28;20138;-91
2023/07/01 00:24:00;;;;;;;3.92;2.22;;;22.70;51.10;;;;;;5039970;28;20577;-91
2023/07/01 00:26:27;;;;;;;2.15;2.03;;;22.70;51.10;;;;;;5037656;28;20041;-91
2023/07/01 00:28:54;;;;;;;2.65;2.45;;;22.80;51.20;;;;;;5032172;28;20049;-89
2023/07/01 00:31:21;;;;;;;2.75;2.55;;;22.70;51.00;;;;;;5039568;28;20048;-90
2023/07/01 00:33:48;;;;;;;3.28;1.88;;;22.70;51.10;;;;;;5028276;28;20479;-91
2023/07/01 00:36:15;;;;;;;3.13;2.72;;;22.70;51.30;;;;;;5042543;28;20052;-89
2023/07/01 00:38:42;;;;;;;2.95;2.75;;;22.70;51.40;;;;;;5032204;28;20044;-91
2023/07/01 00:41:08;;;;;;;2.50;2.30;;;22.80;51.60;;;;;;5016941;28;20041;-90
2023/07/01 00:43:35;;;;;;;2.65;1.90;;;22.70;51.20;;;;;;5031561;28;20077;-91
2023/07/01 00:46:02;;;;;;;6.13;2.83;;;22.70;51.20;;;;;;5019538;28;20033;-90
2023/07/01 00:48:30;;;;;;;3.17;2.60;;;22.70;51.40;;;;;;5026726;28;20072;-90
2023/07/01 00:50:56;;;;;;;2.60;2.40;;;22.60;51.00;;;;;;5046670;28;20041;-90
2023/07/01 00:53:24;;;;;;;2.72;2.15;;;22.70;50.90;;;;;;5021332;28;20539;-90
2023/07/01 00:55:52;;;;;;;2.50;2.30;;;22.70;51.00;;;;;;5019683;28;20064;-90
2023/07/01 00:58:19;;;;;;;6.65;2.78;;;22.70;50.90;;;;;;5046424;28;20128;-90
2023/07/01 01:00:46;;;;;;;3.55;2.33;;;22.70;50.90;;;;;;5047565;28;20048;-90
2023/07/01 01:03:49;;;;;;;2.70;2.50;;;22.60;50.80;;;;;;5015326;28;20046;-90
2023/07/01 01:06:33;;;;;;;2.35;1.90;;;22.50;50.80;;;;;;5016372;28;20072;-90
2023/07/01 01:09:11;;;;;;;2.25;2.00;;;22.50;50.90;;;;;;5022434;28;20049;-90
2023/07/01 01:11:46;;;;;;;2.50;1.95;;;22.60;50.80;;;;;;5023102;28;20045;-90
2023/07/01 01:14:15;;;;;;;2.20;2.00;;;22.50;51.00;;;;;;5018210;28;20132;-91
2023/07/01 01:16:44;;;;;;;2.33;1.83;;;22.60;50.80;;;;;;5018050;28;20594;-91
2023/07/01 01:19:40;;;;;;;3.92;2.17;;;22.60;51.10;;;;;;5034350;28;20584;-89
2023/07/01 01:22:17;;;;;;;2.35;2.03;;;22.50;50.90;;;;;;5022303;28;20045;-89
2023/07/01 01:24:49;;;;;;;2.75;2.10;;;22.40;50.70;;;;;;5025542;28;20053;-90
2023/07/01 01:27:19;;;;;;;;;;;22.40;50.60;;;;;;5043907;28;20057;-90
2023/07/01 01:29:46;;;;;;;4.28;2.00;;;22.50;50.30;;;;;;5034520;28;19955;-91
2023/07/01 01:32:13;;;;;;;2.22;2.05;;;22.50;50.40;;;;;;5030867;28;20048;-89
2023/07/01 01:34:40;;;;;;;3.05;1.80;;;22.60;50.30;;;;;;5042813;28;20048;-91
2023/07/01 01:37:13;;;;;;;2.75;1.77;;;22.50;50.50;;;;;;5040107;28;20045;-91
2023/07/01 01:39:46;;;;;;;3.10;2.00;;;22.50;50.60;;;;;;5039838;28;20625;-90
2023/07/01 01:42:29;;;;;;;1.70;1.60;;;22.30;50.60;;;;;;5039483;28;20113;-90
2023/07/01 01:44:57;;;;;;;2.28;1.50;;;22.50;50.60;;;;;;5039468;28;20048;-91
2023/07/01 01:47:29;;;;;;;3.05;1.60;;;22.30;50.40;;;;;;5040360;28;20049;-91
2023/07/01 01:50:01;;;;;;;2.97;1.90;;;22.40;50.50;;;;;;5035292;28;20073;-90
2023/07/01 01:52:30;;;;;;;2.25;1.80;;;22.40;50.40;;;;;;5025292;28;20498;-88
2023/07/01 01:54:58;;;;;;;2.40;1.90;;;22.40;50.60;;;;;;5020336;28;20053;-89
2023/07/01 01:57:25;;;;;;;2.20;1.77;;;22.40;50.50;;;;;;5043252;28;20102;-91
2023/07/01 01:59:54;;;;;;;3.05;1.70;;;22.30;50.50;;;;;;5025908;28;20053;-90
2023/07/01 02:02:21;;;;;;;2.35;1.90;;;22.40;50.50;;;;;;5019111;28;20053;-91
2023/07/01 02:04:48;;;;;;;1.90;1.80;;;22.30;50.50;;;;;;5035335;28;20532;-90
2023/07/01 02:07:15;;;;;;;2.58;2.15;;;22.40;50.60;;;;;;5022204;28;20055;-91
2023/07/01 02:09:54;;;;;;;1.92;1.80;;;22.30;50.50;;;;;;5026633;28;20546;-90
2023/07/01 02:12:41;;;;;;;2.85;1.90;;;22.20;50.50;;;;;;5023106;28;20049;-91
2023/07/01 02:15:41;;;;;;;3.92;1.92;;;22.20;50.30;;;;;;5023214;28;20050;-91
2023/07/01 02:18:25;;;;;;;3.15;1.95;;;22.20;50.00;;;;;;5027901;28;20056;-91
2023/07/01 02:21:33;;;;;;;1.50;1.40;;;22.40;50.10;;;;;;5029757;28;20046;-90
2023/07/01 02:24:44;;;;;;;;;;;;;;;;;;;;;
2023/07/01 02:27:37;;;;;;;1.85;1.50;;;22.20;50.10;;;;;;5039546;28;20055;-90
2023/07/01 02:30:24;;;;;;;1.85;1.75;;;22.20;50.10;;;;;;5037074;28;20037;-91
2023/07/01 02:33:03;;;;;;;2.22;1.52;;;22.20;50.00;;;;;;5042248;28;20045;-91
2023/07/01 02:35:30;;;;;;;2.35;1.60;;;22.30;50.10;;;;;;5041188;28;20048;-90
2023/07/01 02:37:57;;;;;;;3.45;1.55;;;22.20;49.90;;;;;;5036097;28;20046;-90
2023/07/01 02:41:08;;;;;;;3.28;1.73;;;22.20;50.00;;;;;;5031824;28;20056;-89
2023/07/01 02:44:08;;;;;;;2.53;1.48;;;22.10;49.60;;;;;;5029626;28;20092;-91
2023/07/01 02:47:13;;;;;;;2.38;1.50;;;22.30;49.70;;;;;;5033427;28;20773;-90
2023/07/01 02:50:29;;;;;;;;;;;;;;;;;;;;;
2023/07/01 02:53:28;;;;;;;3.20;1.60;;;22.20;49.70;;;;;;5042410;28;20057;-90
2023/07/01 02:55:55;;;;;;;2.65;1.92;;;22.30;49.60;;;;;;5029490;28;20060;-91
2023/07/01 02:58:22;;;;;;;3.47;1.58;;;22.30;49.80;;;;;;5040263;28;20045;-91
2023/07/01 03:00:49;;;;;;;3.00;2.15;;;22.20;49.80;;;;;;5042693;28;20647;-90
2023/07/01 03:03:17;;;;;;;2.38;2.15;;;22.10;49.80;;;;;;5040653;28;20046;-91
2023/07/01 03:05:44;;;;;;;2.17;1.83;;;22.20;49.70;;;;;;5043522;28;20071;-91
2023/07/01 03:08:11;;;;;;;3.72;1.80;;;22.20;49.90;;;;;;5027145;28;20034;-89
2023/07/01 03:10:38;;;;;;;2.20;1.80;;;22.20;50.00;;;;;;5027456;28;20041;-90
2023/07/01 03:13:05;;;;;;;2.97;1.70;;;22.00;49.90;;;;;;5035728;28;20049;-90
2023/07/01 03:15:32;;;;;;;1.75;1.60;;;22.20;50.00;;;;;;5038097;28;20217;-90
2023/07/01 03:18:34;;;;;;;5.70;2.85;;;22.00;49.90;;;;;;5019700;28;20046;-91
2023/07/01 03:21:33;;;;;;;2.75;1.45;;;22.00;50.00;;;;;;5019192;28;20041;-91
2023/07/01 03:24:23;;;;;;;6.47;1.80;;;22.20;50.00;;;;;;5032830;22;20038;-92
2023/07/01 03:30:49;;;;;;;3.17;2.15;;;22.10;50.10;;;;;;4976711;28;20046;-90
2023/07/01 03:34:00;;;;;;;2.28;1.92;;;22.20;50.10;;;;;;4987131;28;20085;-91
2023/07/01 03:40:13;;;;;;;2.45;1.38;;;21.90;50.00;;;;;;4969092;28;20050;-91
2023/07/01 03:43:21;;;;;;;2.63;1.50;;;22.20;50.30;;;;;;4960398;28;20414;-92
2023/07/01 03:46:03;;;;;;;3.55;2.00;;;22.00;50.30;;;;;;4971929;28;20062;-90
2023/07/01 03:49:09;;;;;;;5.60;2.10;;;22.00;50.30;;;;;;4974253;28;20421;-91
2023/07/01 03:51:43;;;;;;;3.90;1.70;;;22.00;50.70;;;;;;4956570;28;20059;-91
2023/07/01 03:54:43;;;;;;;2.83;1.77;;;22.00;50.40;;;;;;4957850;28;20055;-91
2023/07/01 03:57:35;;;;;;;4.57;2.40;;;22.10;50.70;;;;;;4967131;28;20053;-90
2023/07/01 04:00:18;;;;;;;1.92;1.80;;;22.00;50.40;;;;;;4961068;28;20047;-91
2023/07/01 04:03:23;;;;;;;1.75;1.60;;;22.00;50.50;;;;;;4967917;28;20051;-91
2023/07/01 04:05:51;;;;;;;3.13;2.03;;;22.00;50.50;;;;;;4959525;28;20043;-92
2023/07/01 04:09:00;;;;;;;4.45;2.33;;;22.00;50.50;;;;;;4971066;28;20051;-92
2023/07/01 04:11:47;;;;;;;2.10;1.63;;;22.00;50.70;;;;;;4945186;29;20513;-90
2023/07/01 04:14:28;;;;;;;2.90;1.70;;;22.10;50.70;;;;;;4954065;28;20046;-90
2023/07/01 04:17:58;;;;;;;2.53;1.77;;;22.10;50.70;;;;;;4967896;28;20131;-90
2023/07/01 04:20:49;;;;;;;3.25;1.90;;;22.10;50.80;;;;;;4899688;29;20139;-90
2023/07/01 04:24:50;;;;;;;12.15;3.05;;;22.00;50.80;;;;;;4922583;29;20052;-90
2023/07/01 04:27:49;;;;;;;2.60;1.58;;;22.00;50.80;;;;;;4926978;29;20047;-91
2023/07/01 04:30:30;;;;;;;3.80;1.60;;;22.00;50.70;;;;;;4919450;29;20106;-91
2023/07/01 04:33:23;;;;;;;3.50;1.80;;;22.10;51.00;;;;;;4918045;29;20099;-92
2023/07/01 04:36:19;;;;;;;5.55;1.85;;;22.00;50.80;;;;;;4912867;29;20055;-91
2023/07/01 04:39:30;;;;;;;2.88;2.00;;;22.00;50.80;;;;;;4960028;28;20049;-91
2023/07/01 04:42:58;;;;;;;2.97;1.88;;;21.90;51.10;;;;;;4970454;28;20523;-91
2023/07/01 04:46:06;;;;;;;2.38;1.48;;;21.90;50.90;;;;;;4949321;28;20057;-91
2023/07/01 04:52:15;;;;;;;3.50;2.10;;;22.00;51.10;;;;;;4963451;28;20058;-91
2023/07/01 04:55:20;;;;;;;3.47;1.83;;;21.90;51.30;;;;;;4974549;28;20082;-90
2023/07/01 04:57:59;;;;;;;3.30;1.60;;;21.90;51.20;;;;;;4965694;28;20050;-91
2023/07/01 05:01:12;;;;;;;2.83;1.42;;;22.00;51.60;;;;;;4970363;28;20039;-91
2023/07/01 05:04:16;;;;;;;2.85;1.73;;;21.90;51.60;;;;;;4975293;28;20043;-91
2023/07/01 05:07:07;;;;;;;1.50;1.40;;;21.90;51.90;;;;;;4974075;28;20064;-91
2023/07/01 05:09:34;;;;;;;1.55;1.20;;;22.10;52.10;;;;;;4960698;28;20051;-91
2023/07/01 05:12:01;;;;;;;2.92;1.80;;;22.10;52.20;;;;;;4957603;28;20057;-90
2023/07/01 05:14:28;;;;;;;1.55;1.42;;;21.90;52.20;;;;;;4974923;28;20046;-91
2023/07/01 05:16:54;;;;;;;4.03;1.90;;;21.90;52.50;;;;;;4966568;28;20510;-91
2023/07/01 05:22:45;;;;;;;3.15;2.33;;;21.90;54.10;;;;;;4973108;28;20107;-91
2023/07/01 05:25:12;;;;;;;1.70;1.55;;;21.90;53.90;;;;;;4965331;28;20047;-90
2023/07/01 05:27:41;;;;;;;3.90;1.85;;;21.60;55.00;;;;;;4974020;28;20043;-92
2023/07/01 05:30:49;;;;;;;2.28;1.88;;;21.70;55.90;;;;;;4969378;28;20133;-91
2023/07/01 05:38:13;;;;;;;2.80;1.77;;;21.50;57.60;;;;;;4947244;28;20066;-92
2023/07/01 05:40:49;;;;;;;5.43;1.88;;;21.10;57.80;;;;;;4969728;28;20057;-91
2023/07/01 05:43:16;;;;;;;1.67;1.48;;;21.10;57.60;;;;;;4949826;28;20047;-91
2023/07/01 05:45:43;;;;;;;2.15;1.58;;;21.20;58.30;;;;;;4966892;28;20083;-91
2023/07/01 05:48:26;;;;;;;1.90;1.67;;;21.10;58.60;;;;;;4954570;28;20057;-91
2023/07/01 05:51:22;;;;;;;2.38;1.90;;;21.10;59.80;;;;;;4960889;28;20047;-92
2023/07/01 05:59:14;;;;;;;1.88;1.67;;;21.00;60.10;;;;;;4960259;28;20568;-92
2023/07/01 06:02:53;;;;;;;1.50;1.35;;;21.00;60.10;;;;;;4956910;28;20047;-91
2023/07/01 06:34:35;;;;;;;3.00;1.50;;;21.10;59.80;;;;;;4962756;28;20055;-92
2023/07/01 06:37:11;;;;;;;2.78;1.80;;;21.00;59.90;;;;;;4972900;28;20050;-93
2023/07/01 06:40:16;;;;;;;1.50;1.40;;;21.20;60.20;;;;;;4953627;29;20058;-91
2023/07/01 06:42:54;;;;;;;1.85;1.63;;;21.10;59.80;;;;;;4964671;28;20047;-92
2023/07/01 06:45:27;;;;;;;3.38;1.65;;;21.10;59.20;;;;;;4956108;28;20226;-92
2023/07/01 06:48:43;;;;;;;1.63;1.50;;;21.00;59.90;;;;;;4945693;28;20536;-91
2023/07/01 06:52:28;;;;;;;1.40;1.30;;;21.10;59.80;;;;;;4974578;28;20050;-92
2023/07/01 06:55:17;;;;;;;3.45;1.40;;;21.20;60.10;;;;;;4955002;28;20059;-91
2023/07/01 07:02:31;;;;;;;2.03;1.48;;;21.30;60.00;;;;;;4896885;29;20056;-90
2023/07/01 07:06:02;;;;;;;1.23;1.13;;;21.30;60.00;;;;;;4912544;29;20056;-92
2023/07/01 07:09:38;;;;;;;2.17;1.30;;;21.50;60.70;;;;;;4909287;29;20028;-92
2023/07/01 07:16:04;;;;;;;2.03;1.33;;;21.60;60.90;;;;;;4949307;28;20082;-51
2023/07/01 07:18:30;;;;;;;2.25;1.00;;;21.40;59.80;;;;;;4937104;29;20448;-52
2023/07/01 07:20:57;;;;;;;2.60;1.40;;;21.40;60.30;;;;;;4932497;29;20067;-51
2023/07/01 07:23:24;;;;;;;2.03;1.60;;;21.40;60.90;;;;;;4932539;29;20051;-52
2023/07/01 07:25:51;;;;;;;1.92;1.58;;;21.40;60.90;;;;;;4934166;29;20564;-49
2023/07/01 07:28:18;;;;;;;2.65;1.10;;;21.30;61.50;;;;;;4934798;29;20046;-51
2023/07/01 07:30:44;;;;;;;1.77;1.20;;;21.30;61.80;;;;;;4935698;29;20039;-53
2023/07/01 07:33:12;;;;;;;3.30;1.48;;;21.30;62.00;;;;;;4930372;29;20068;-49
2023/07/01 07:35:38;;;;;;;1.75;1.63;;;21.20;62.50;;;;;;4934655;29;20044;-52
2023/07/01 07:38:06;;;;;;;2.05;1.30;;;21.20;62.80;;;;;;4916006;29;20050;-53
2023/07/01 07:40:33;;;;;;;2.10;1.50;;;21.20;62.90;;;;;;4935516;29;20055;-53
2023/07/01 07:43:10;;;;;;;1.80;0.95;;;21.20;63.20;;;;;;4932769;29;20130;-48
2023/07/01 07:45:37;;;;;;;1.75;1.02;;;21.20;63.90;;;;;;4929089;29;20050;-53
2023/07/01 07:48:06;;;;;;;2.65;1.00;;;21.20;63.40;;;;;;4932212;29;20111;-53
2023/07/01 07:50:35;;;;;;;2.28;1.33;;;21.20;63.50;;;;;;4933997;29;20310;-50
2023/07/01 07:53:03;;;;;;;1.05;0.95;;;21.20;63.90;;;;;;4927668;29;20111;-52
2023/07/01 07:55:33;;;;;;;0.77;0.77;;;21.20;63.90;;;;;;4931412;29;20119;-52
2023/07/01 07:58:01;;;;;;;1.02;1.00;;;21.20;64.10;;;;;;4934343;29;20040;-51
2023/07/01 08:00:28;;;;;;;1.13;1.10;;;21.20;64.10;;;;;;4927307;29;20032;-53
2023/07/01 08:02:55;;;;;;;2.15;0.98;;;21.20;64.40;;;;;;4932013;29;20066;-53
2023/07/01 08:05:23;;;;;;;1.08;0.82;;;21.20;64.40;;;;;;4934737;29;20659;-53
2023/07/01 08:07:50;;;;;;;1.35;0.90;;;21.30;64.10;;;;;;4934006;29;20044;-53
2023/07/01 08:10:17;;;;;;;0.73;0.60;;;21.30;64.00;;;;;;4930641;29;20083;-53
2023/07/01 08:12:44;;;;;;;1.15;0.98;;;21.20;64.20;;;;;;4933862;29;20039;-51
2023/07/01 08:15:11;;;;;;;1.48;0.70;;;21.20;64.10;;;;;;4934638;29;20060;-53
2023/07/01 08:17:38;;;;;;;1.45;1.00;;;21.20;64.20;;;;;;4933452;29;20489;-53
2023/07/01 08:20:08;;;;;;;0.82;0.70;;;21.20;64.20;;;;;;4932609;29;20572;-52
2023/07/01 08:22:35;;;;;;;1.00;0.73;;;21.20;64.20;;;;;;4932247;29;20511;-51
2023/07/01 08:25:02;;;;;;;1.27;0.80;;;21.20;64.50;;;;;;4930639;29;20067;-52
2023/07/01 08:27:28;;;;;;;0.80;0.80;;;21.20;64.80;;;;;;4929559;29;20036;-49
2023/07/01 08:29:55;;;;;;;1.35;0.80;;;21.20;64.80;;;;;;4935155;29;20047;-53
2023/07/01 08:32:22;;;;;;;2.15;0.70;;;21.30;65.40;;;;;;4931847;29;20119;-51
2023/07/01 08:34:49;;;;;;;1.25;0.85;;;21.40;65.60;;;;;;4931596;29;20045;-53
2023/07/01 08:37:15;;;;;;;0.88;0.65;;;21.50;65.20;;;;;;4933581;29;20046;-52
2023/07/01 08:39:42;;;;;;;0.70;0.70;;;21.70;65.30;;;;;;4934216;29;20039;-53
2023/07/01 08:42:14;;;;;;;0.70;0.70;;;21.80;65.30;;;;;;4929013;29;20584;-51
2023/07/01 08:44:41;;;;;;;0.80;0.80;;;21.90;65.20;;;;;;4948481;23;20158;-56
2023/07/01 08:47:08;;;;;;;0.60;0.60;;;22.00;65.10;;;;;;4895146;29;20040;-56
2023/07/01 08:49:39;;;;;;;0.50;0.45;;;22.20;64.70;;;;;;4895128;29;20040;-57
2023/07/01 08:52:10;;;;;;;0.73;0.52;;;22.20;63.80;;;;;;4895346;29;20040;-57
2023/07/01 08:54:37;;;;;;;1.05;0.68;;;22.30;63.20;;;;;;4896492;29;20092;-57
2023/07/01 08:57:05;;;;;;;0.60;0.60;;;22.40;62.60;;;;;;4894064;29;20136;-57
2023/07/01 08:59:32;;;;;;;0.88;0.40;;;22.40;62.60;;;;;;4888319;29;20052;-57
2023/07/01 09:01:59;;;;;;;0.40;0.40;;;22.40;62.40;;;;;;4894615;29;20048;-56
2023/07/01 09:04:27;;;;;;;0.60;0.40;;;22.40;62.20;;;;;;4894261;29;20127;-57
2023/07/01 09:06:54;;;;;;;0.52;0.45;;;22.50;62.60;;;;;;4894783;29;20040;-57
2023/07/01 09:09:21;;;;;;;1.48;0.40;;;22.50;62.50;;;;;;4895664;29;20124;-57
2023/07/01 09:11:47;;;;;;;0.70;0.50;;;22.50;62.20;;;;;;4895288;29;20104;-56
2023/07/01 09:14:14;;;;;;;1.13;0.47;;;22.40;62.10;;;;;;4895298;29;20064;-57
2023/07/01 09:16:43;;;;;;;0.45;0.45;;;22.40;62.20;;;;;;4893495;29;20076;-56
2023/07/01 09:19:13;;;;;;;0.43;0.30;;;22.40;62.40;;;;;;4892034;29;20049;-57
2023/07/01 09:21:40;;;;;;;0.40;0.40;;;22.40;62.80;;;;;;4895533;29;20108;-56
2023/07/01 09:24:12;;;;;;;0.50;0.50;;;22.40;62.90;;;;;;4896526;29;20049;-57
2023/07/01 09:26:40;;;;;;;0.38;0.38;;;22.40;63.10;;;;;;4892925;29;20049;-56
2023/07/01 09:29:09;;;;;;;0.30;0.30;;;22.40;63.10;;;;;;4883992;29;20068;-57
2023/07/01 09:31:51;;;;;;;0.98;0.30;;;22.40;63.20;;;;;;4877826;29;20132;-57
2023/07/01 09:34:18;;;;;;;0.30;0.30;;;22.50;64.40;;;;;;4896304;29;20040;-56
2023/07/01 09:36:45;;;;;;;0.38;0.38;;;22.50;63.80;;;;;;4894772;29;20052;-55
2023/07/01 09:39:12;;;;;;;0.22;0.22;;;22.50;63.60;;;;;;4894446;29;20120;-57
2023/07/01 09:41:41;;;;;;;0.30;0.30;;;22.50;64.10;;;;;;4889673;29;20043;-57
2023/07/01 09:44:18;;;;;;;0.30;0.30;;;22.50;63.90;;;;;;4878251;29;20048;-56
2023/07/01 09:46:50;;;;;;;0.47;0.30;;;22.50;64.40;;;;;;4893072;29;20037;-56
2023/07/01 09:49:18;;;;;;;0.38;0.30;;;22.50;64.00;;;;;;4873828;29;20395;-56
2023/07/01 09:51:50;;;;;;;0.25;0.25;;;22.40;64.20;;;;;;4897673;29;20041;-57
2023/07/01 09:54:25;;;;;;;0.25;0.25;;;22.40;64.70;;;;;;4893755;29;20045;-56
2023/07/01 09:56:54;;;;;;;0.35;0.30;;;22.30;65.20;;;;;;4892728;29;20057;-56
2023/07/01 09:59:21;;;;;;;0.20;0.20;;;22.30;64.90;;;;;;4894267;29;20104;-57
2023/07/01 10:01:50;;;;;;;0.30;0.28;;;22.20;65.20;;;;;;4894850;29;20585;-57
2023/07/01 10:04:27;;;;;;;0.20;0.15;;;22.20;66.40;;;;;;4891789;29;20489;-57
2023/07/01 10:06:57;;;;;;;0.20;0.20;;;22.30;66.50;;;;;;4893960;29;20068;-57
2023/07/01 10:09:26;;;;;;;0.43;0.43;;;22.30;65.80;;;;;;4892855;29;20056;-57
2023/07/01 10:11:56;;;;;;;1.15;0.30;;;22.40;65.90;;;;;;4897688;29;20048;-57
2023/07/01 10:14:25;;;;;;;0.50;0.30;;;22.40;65.40;;;;;;4894045;29;20105;-57
2023/07/01 10:16:57;;;;;;;0.30;0.20;;;22.50;65.80;;;;;;4891542;29;20048;-56
2023/07/01 10:19:32;;;;;;;0.38;0.38;;;22.50;65.20;;;;;;4895551;29;20048;-57
2023/07/01 10:22:25;;;;;;;0.38;0.30;;;22.50;65.50;;;;;;4891203;29;20108;-57
2023/07/01 10:25:02;;;;;;;0.75;0.30;;;22.60;65.70;;;;;;4896243;29;20044;-57
2023/07/01 10:27:44;;;;;;;0.30;0.30;;;22.60;65.70;;;;;;4893720;29;20128;-57
2023/07/01 10:30:15;;;;;;;0.20;0.20;;;22.60;65.90;;;;;;4891834;29;20041;-57
2023/07/01 10:32:43;;;;;;;0.40;0.40;;;22.60;65.10;;;;;;4892308;29;20104;-57
2023/07/01 10:35:13;;;;;;;0.82;0.22;;;22.70;65.10;;;;;;4893462;29;20387;-58
2023/07/01 10:37:40;;;;;;;0.30;0.30;;;22.70;64.90;;;;;;4886541;29;20117;-57
2023/07/01 10:40:29;;;;;;;0.40;0.40;;;22.70;65.20;;;;;;4895533;29;20119;-56
2023/07/01 10:43:22;;;;;;;0.38;0.30;;;22.70;65.10;;;;;;4894112;29;20063;-56
2023/07/01 10:46:13;;;;;;;1.95;0.25;;;22.80;65.00;;;;;;4887563;29;20069;-57
2023/07/01 10:49:03;;;;;;;0.80;0.75;;;22.80;65.30;;;;;;4891141;29;20047;-57
2023/07/01 10:51:45;;;;;;;7.03;1.20;;;22.90;65.40;;;;;;4898619;29;20097;-57
2023/07/01 10:54:12;;;;;;;0.30;0.30;;;22.90;65.10;;;;;;4879353;29;20096;-57
2023/07/01 10:57:01;;;;;;;0.40;0.38;;;22.90;64.50;;;;;;4897527;29;20048;-57
2023/07/01 10:59:30;;;;;;;0.30;0.30;;;22.90;64.20;;;;;;4895030;29;20127;-57
2023/07/01 11:02:00;;;;;;;1.23;0.30;;;23.00;64.40;;;;;;4897683;29;20127;-57
2023/07/01 11:04:51;;;;;;;0.68;0.50;;;23.00;64.30;;;;;;4896509;29;20044;-57
2023/07/01 11:07:26;;;;;;;0.25;0.25;;;23.00;64.60;;;;;;4898431;29;20029;-57
2023/07/01 11:09:54;;;;;;;0.40;0.40;;;23.10;64.40;;;;;;4898762;29;20052;-56
2023/07/01 11:12:23;;;;;;;0.20;0.20;;;23.20;64.70;;;;;;4898834;29;20044;-57
2023/07/01 11:14:52;;;;;;;0.35;0.35;;;23.30;64.50;;;;;;4897085;29;20417;-56
2023/07/01 11:17:22;;;;;;;1.17;0.40;;;23.40;64.00;;;;;;4897173;29;20421;-57
2023/07/01 11:19:56;;;;;;;0.30;0.30;;;23.50;63.90;;;;;;4902699;29;20040;-57
2023/07/01 11:22:23;;;;;;;0.50;0.50;;;23.60;63.50;;;;;;4897265;29;20103;-53
2023/07/01 11:24:50;;;;;;;0.25;0.25;;;23.60;62.90;;;;;;4899236;29;20044;-57
2023/07/01 11:27:17;;;;;;;0.52;0.52;;;23.70;62.80;;;;;;4897021;29;20469;-56
2023/07/01 11:29:45;;;;;;;0.47;0.45;;;23.70;62.90;;;;;;4898270;29;20048;-56
2023/07/01 11:32:12;;;;;;;0.50;0.50;;;23.70;62.80;;;;;;4898863;29;20128;-57
2023/07/01 11:34:41;;;;;;;1.00;0.82;;;23.70;62.70;;;;;;4878219;29;20048;-56
2023/07/01 11:37:08;;;;;;;0.63;0.63;;;23.80;62.70;;;;;;4897182;29;20443;-57
2023/07/01 11:39:45;;;;;;;0.50;0.50;;;23.80;62.70;;;;;;4898375;29;20068;-55
2023/07/01 11:42:12;;;;;;;0.95;0.90;;;23.90;62.70;;;;;;4899006;29;20041;-57
2023/07/01 11:44:39;;;;;;;1.20;0.70;;;24.00;62.70;;;;;;4896811;29;20134;-56
2023/07/01 11:47:14;;;;;;;0.52;0.52;;;24.00;62.70;;;;;;4894578;29;20102;-57
2023/07/01 11:49:41;;;;;;;0.80;0.80;;;24.10;62.80;;;;;;4898594;29;20104;-58
2023/07/01 11:52:08;;;;;;;0.60;0.60;;;24.10;62.40;;;;;;4897107;29;20040;-57
2023/07/01 11:54:47;;;;;;;0.50;0.50;;;24.20;62.20;;;;;;4898830;29;20045;-57
2023/07/01 11:57:18;;;;;;;0.70;0.70;;;24.30;62.30;;;;;;4896082;29;20075;-57
2023/07/01 11:59:46;;;;;;;0.60;0.50;;;24.50;62.40;;;;;;4897365;29;20063;-58
2023/07/01 12:02:15;;;;;;;0.60;0.60;;;24.70;62.40;;;;;;4897932;29;20127;-58
2023/07/01 12:04:42;;;;;;;0.50;0.50;;;24.80;62.20;;;;;;4893178;29;20525;-57
2023/07/01 12:07:15;;;;;;;0.75;0.75;;;25.10;61.00;;;;;;4897030;29;20045;-56
2023/07/01 12:09:47;;;;;;;0.88;0.63;;;25.20;60.10;;;;;;4896826;29;20540;-58
2023/07/01 12:12:32;;;;;;;0.60;0.60;;;25.30;59.70;;;;;;4901421;29;20044;-57
2023/07/01 12:15:00;;;;;;;0.60;0.60;;;25.40;59.40;;;;;;4888815;29;20040;-58
2023/07/01 12:17:31;;;;;;;0.38;0.30;;;25.40;59.50;;;;;;4895686;29;20108;-57
2023/07/01 12:19:58;;;;;;;0.57;0.30;;;25.40;60.00;;;;;;4896871;29;20044;-58
2023/07/01 12:22:27;;;;;;;0.35;0.30;;;25.40;59.20;;;;;;4894448;29;20059;-57
2023/07/01 12:24:59;;;;;;;0.35;0.32;;;25.60;59.90;;;;;;4895429;29;20076;-57
2023/07/01 12:27:29;;;;;;;0.75;0.38;;;25.60;59.70;;;;;;4894898;29;20040;-58
2023/07/01 12:29:59;;;;;;;0.20;0.20;;;25.80;59.70;;;;;;4895548;29;20045;-56
2023/07/01 12:32:26;;;;;;;0.40;0.40;;;26.00;59.80;;;;;;4894112;29;20070;-56
2023/07/01 12:34:56;;;;;;;0.45;0.45;;;26.10;59.80;;;;;;4890740;29;20473;-58
2023/07/01 12:37:23;;;;;;;0.60;0.32;;;26.30;59.40;;;;;;4889434;29;20049;-57
2023/07/01 12:39:52;;;;;;;0.50;0.50;;;26.60;59.50;;;;;;4889988;29;20075;-57
2023/07/01 12:42:20;;;;;;;0.65;0.60;;;26.80;58.90;;;;;;4892898;29;20048;-57
2023/07/01 12:44:47;;;;;;;0.65;0.47;;;27.00;57.90;;;;;;4889297;29;20075;-57
2023/07/01 12:47:13;;;;;;;0.40;0.40;;;27.20;56.80;;;;;;4889885;29;20093;-57
2023/07/01 12:49:41;;;;;;;1.27;0.40;;;27.40;56.30;;;;;;4894379;29;20107;-54
2023/07/01 12:52:08;;;;;;;1.20;0.40;;;27.50;56.40;;;;;;4893866;29;20648;-57
2023/07/01 12:54:35;;;;;;;0.40;0.40;;;27.50;55.60;;;;;;4898030;29;20131;-57
2023/07/01 12:57:01;;;;;;;0.60;0.60;;;27.70;55.70;;;;;;4894646;29;20044;-56
2023/07/01 12:59:28;;;;;;;0.45;0.43;;;27.70;55.40;;;;;;4895539;29;20056;-58
2023/07/01 13:01:55;;;;;;;0.93;0.30;;;27.80;55.50;;;;;;4894018;29;20437;-55
2023/07/01 13:04:22;;;;;;;0.40;0.40;;;27.80;54.90;;;;;;4889731;29;20060;-57
2023/07/01 13:06:49;;;;;;;0.38;0.32;;;27.90;54.90;;;;;;4895859;29;20584;-57
2023/07/01 13:09:22;;;;;;;0.52;0.47;;;27.90;54.50;;;;;;4897477;29;20410;-57
2023/07/01 13:11:51;;;;;;;0.30;0.30;;;28.00;54.50;;;;;;4893617;29;20123;-56
2023/07/01 13:14:21;;;;;;;0.43;0.43;;;28.00;54.10;;;;;;4898258;29;20040;-57
2023/07/01 13:16:47;;;;;;;0.30;0.30;;;28.10;54.10;;;;;;4895069;29;20048;-55
2023/07/01 13:19:14;;;;;;;1.05;0.45;;;28.20;54.20;;;;;;4894822;29;20067;-57
2023/07/01 13:21:48;;;;;;;0.30;0.30;;;28.30;54.40;;;;;;4896616;29;20072;-55
2023/07/01 13:24:16;;;;;;;0.70;0.50;;;28.40;53.80;;;;;;4894614;29;20071;-54
2023/07/01 13:26:45;;;;;;;0.40;0.40;;;28.60;54.30;;;;;;4896804;29;20068;-57
2023/07/01 13:29:13;;;;;;;0.70;0.70;;;28.70;53.40;;;;;;4892502;29;20060;-57
2023/07/01 13:31:41;;;;;;;2.22;0.60;;;28.90;52.60;;;;;;4892858;29;20068;-56
2023/07/01 13:34:08;;;;;;;4.00;0.82;;;28.90;51.80;;;;;;4894550;29;20040;-57
2023/07/01 13:36:40;;;;;;;0.80;0.50;;;28.90;51.30;;;;;;4890056;29;20044;-57
2023/07/01 13:39:12;;;;;;;;;;;29.00;50.90;;;;;;4894250;29;20059;-57
2023/07/01 13:41:39;;;;;;;0.75;0.70;;;28.90;51.70;;;;;;4889924;29;20006;-58
2023/07/01 13:44:22;;;;;;;0.65;0.65;;;28.70;50.70;;;;;;4889779;29;20059;-57
2023/07/01 13:46:53;;;;;;;0.88;0.80;;;28.50;50.80;;;;;;4894347;29;20104;-57
2023/07/01 13:49:25;;;;;;;1.60;0.60;;;28.20;50.80;;;;;;4878272;29;20044;-57
2023/07/01 13:51:53;;;;;;;;;;;28.10;51.50;;;;;;4894539;29;20048;-56
2023/07/01 13:54:22;;;;;;;0.85;0.50;;;28.00;52.40;;;;;;4895893;29;20407;-57
2023/07/01 13:56:55;;;;;;;0.90;0.90;;;28.00;52.80;;;;;;4893047;29;20063;-57
2023/07/01 13:59:25;;;;;;;1.95;1.45;;;28.00;53.20;;;;;;4895415;29;20040;-56
2023/07/01 14:02:06;;;;;;;1.25;1.00;;;28.20;52.50;;;;;;4894878;29;20064;-57
2023/07/01 14:04:36;;;;;;;2.05;0.60;;;28.40;51.50;;;;;;4895073;29;20044;-57
2023/07/01 14:07:05;;;;;;;2.15;0.80;;;28.50;50.60;;;;;;4895226;29;20037;-53
2023/07/01 14:09:36;;;;;;;3.13;0.80;;;28.70;50.10;;;;;;4878411;29;20049;-57
2023/07/01 14:12:03;;;;;;;2.50;1.00;;;28.70;49.50;;;;;;4896458;29;20115;-58
2023/07/01 14:14:31;;;;;;;2.25;1.30;;;28.70;49.10;;;;;;4893983;29;20036;-55
2023/07/01 14:16:59;;;;;;;1.13;0.90;;;28.60;48.80;;;;;;4878105;29;20084;-57
2023/07/01 14:19:26;;;;;;;1.00;0.82;;;28.60;49.10;;;;;;4892936;29;20075;-57
2023/07/01 14:21:55;;;;;;;5.38;1.50;;;28.40;49.30;;;;;;4895632;29;20048;-57
2023/07/01 14:24:26;;;;;;;3.38;0.90;;;28.30;49.30;;;;;;4897284;29;20044;-56
2023/07/01 14:26:55;;;;;;;1.33;1.05;;;28.20;49.40;;;;;;4894173;29;20040;-55
2023/07/01 14:29:22;;;;;;;1.25;1.00;;;28.10;49.30;;;;;;4893072;29;20115;-57
2023/07/01 14:31:51;;;;;;;1.05;0.93;;;27.90;49.20;;;;;;4893802;29;20569;-56
2023/07/01 14:34:21;;;;;;;1.00;0.90;;;27.70;49.50;;;;;;4893493;29;20045;-57
2023/07/01 14:36:52;;;;;;;1.83;1.02;;;27.50;50.70;;;;;;4876689;29;20037;-56